createdAt,value
2023-02-12T00:00:10.086Z,26.58
2023-02-12T00:02:43.135Z,24.55
2023-02-12T00:05:10.126Z,26.55
2023-02-12T00:07:37.030Z,26.65
2023-02-12T00:10:04.580Z,28.23
2023-02-12T00:12:31.438Z,27.55
2023-02-12T00:14:58.307Z,29.08
2023-02-12T00:17:25.187Z,28.38
2023-02-12T00:19:52.098Z,27.33
2023-02-12T00:22:18.986Z,27.23
2023-02-12T00:24:45.872Z,29.75
2023-02-12T00:27:12.933Z,30.73
2023-02-12T00:29:39.912Z,29.38
2023-02-12T00:32:07.532Z,32.40
2023-02-12T00:34:34.432Z,30.77
2023-02-12T00:37:01.298Z,32.78
2023-02-12T00:39:28.237Z,30.00
2023-02-12T00:41:55.162Z,26.88
2023-02-12T00:44:22.109Z,27.98
2023-02-12T00:46:49.120Z,25.17
2023-02-12T00:49:19.130Z,25.20
2023-02-12T00:51:46.609Z,28.27
2023-02-12T00:54:13.482Z,31.08
2023-02-12T00:56:40.539Z,29.60
2023-02-12T00:59:07.574Z,30.50
2023-02-12T01:01:35.727Z,30.90
2023-02-12T01:04:03.858Z,31.10
2023-02-12T01:06:30.742Z,38.08
2023-02-12T01:08:57.734Z,38.72
2023-02-12T01:11:24.623Z,37.47
2023-02-12T01:13:52.443Z,40.60
2023-02-12T01:16:22.618Z,39.17
2023-02-12T01:18:52.166Z,41.40
2023-02-12T01:21:23.342Z,38.75
2023-02-12T01:23:50.457Z,32.65
2023-02-12T01:26:19.188Z,32.00
2023-02-12T01:28:50.850Z,35.83
2023-02-12T01:31:21.707Z,32.45
2023-02-12T01:33:53.367Z,31.10
2023-02-12T01:36:21.181Z,31.52
2023-02-12T01:38:49.038Z,35.42
2023-02-12T01:41:21.658Z,38.15
2023-02-12T01:44:07.162Z,36.33
2023-02-12T01:46:34.157Z,35.88
2023-02-12T01:49:03.609Z,37.88
2023-02-12T01:51:32.103Z,39.33
2023-02-12T01:54:01.824Z,35.83
2023-02-12T01:56:29.954Z,34.38
2023-02-12T01:58:57.891Z,34.00
2023-02-12T02:01:28.937Z,33.03
2023-02-12T02:04:05.505Z,31.33
2023-02-12T02:06:36.200Z,32.00
2023-02-12T02:09:04.566Z,30.45
2023-02-12T02:11:50.754Z,28.67
2023-02-12T02:14:33.203Z,25.75
2023-02-12T02:17:31.293Z,26.00
2023-02-12T02:20:04.227Z,24.10
2023-02-12T02:22:33.863Z,24.27
2023-02-12T02:25:03.707Z,25.48
2023-02-12T02:27:36.042Z,23.90
2023-02-12T02:30:57.149Z,24.60
2023-02-12T02:33:56.167Z,24.65
2023-02-12T02:36:59.652Z,24.05
2023-02-12T02:40:05.859Z,26.38
2023-02-12T02:42:58.690Z,22.17
2023-02-12T02:45:34.076Z,25.13
2023-02-12T02:48:06.968Z,24.40
2023-02-12T02:50:38.452Z,24.63
2023-02-12T02:53:13.482Z,25.50
2023-02-12T02:55:57.286Z,25.55
2023-02-12T02:58:30.861Z,25.85
2023-02-12T03:01:05.968Z,26.63
2023-02-12T03:03:38.654Z,24.23
2023-02-12T03:06:18.681Z,25.35
2023-02-12T03:08:54.555Z,25.58
2023-02-12T03:11:24.540Z,25.10
2023-02-12T03:14:08.009Z,24.70
2023-02-12T03:16:39.604Z,24.88
2023-02-12T03:19:17.162Z,25.65
2023-02-12T03:21:49.906Z,24.40
2023-02-12T03:24:28.917Z,24.40
2023-02-12T03:27:09.265Z,22.73
2023-02-12T03:29:36.377Z,23.23
2023-02-12T03:32:28.027Z,23.10
2023-02-12T03:35:23.916Z,22.73
2023-02-12T03:38:04.149Z,22.05
2023-02-12T03:40:51.503Z,22.05
2023-02-12T03:43:42.848Z,22.13
2023-02-12T03:46:24.987Z,23.15
2023-02-12T03:49:07.336Z,18.67
2023-02-12T03:51:39.714Z,18.90
2023-02-12T03:54:09.434Z,17.95
2023-02-12T03:56:52.205Z,20.38
2023-02-12T03:59:21.438Z,16.85
2023-02-12T04:01:50.532Z,17.92
2023-02-12T04:04:17.684Z,17.20
2023-02-12T04:06:47.936Z,18.08
2023-02-12T04:09:15.717Z,17.35
2023-02-12T04:12:07.124Z,17.27
2023-02-12T04:15:12.424Z,17.75
2023-02-12T04:18:02.650Z,17.70
2023-02-12T04:20:44.745Z,21.00
2023-02-12T04:23:18.096Z,18.92
2023-02-12T04:26:03.048Z,17.95
2023-02-12T04:29:14.659Z,16.17
2023-02-12T04:31:47.675Z,15.68
2023-02-12T04:34:44.386Z,15.60
2023-02-12T04:37:19.651Z,17.13
2023-02-12T04:39:48.218Z,17.80
2023-02-12T04:42:15.674Z,17.45
2023-02-12T04:44:44.433Z,15.68
2023-02-12T04:47:16.361Z,16.20
2023-02-12T04:49:43.517Z,15.82
2023-02-12T04:52:10.458Z,15.65
2023-02-12T04:54:37.608Z,15.77
2023-02-12T04:57:04.578Z,17.13
2023-02-12T04:59:31.497Z,17.20
2023-02-12T05:01:58.515Z,18.40
2023-02-12T05:04:25.425Z,17.13
2023-02-12T05:06:52.260Z,17.90
2023-02-12T05:09:20.478Z,16.20
2023-02-12T05:11:47.521Z,18.58
2023-02-12T05:14:14.848Z,17.67
2023-02-12T05:16:41.756Z,18.23
2023-02-12T05:19:09.735Z,17.35
2023-02-12T05:21:38.000Z,19.25
2023-02-12T05:24:05.626Z,18.52
2023-02-12T05:26:32.826Z,18.55
2023-02-12T05:28:59.751Z,19.05
2023-02-12T05:31:27.126Z,19.48
2023-02-12T05:33:54.132Z,19.50
2023-02-12T05:36:23.946Z,20.70
2023-02-12T05:38:56.881Z,21.25
2023-02-12T05:41:25.439Z,20.67
2023-02-12T05:43:53.180Z,20.38
2023-02-12T05:46:22.127Z,20.00
2023-02-12T05:48:49.312Z,22.45
2023-02-12T05:51:20.069Z,20.60
2023-02-12T05:53:47.500Z,20.55
2023-02-12T05:56:20.435Z,21.15
2023-02-12T05:58:52.446Z,21.67
2023-02-12T06:01:23.079Z,22.05
2023-02-12T06:03:49.973Z,20.58
2023-02-12T06:06:16.894Z,21.52
2023-02-12T06:08:44.265Z,21.70
2023-02-12T06:11:14.284Z,20.95
2023-02-12T06:13:41.573Z,20.88
2023-02-12T06:16:16.604Z,20.65
2023-02-12T06:18:43.471Z,21.20
2023-02-12T06:21:10.408Z,21.60
2023-02-12T06:23:37.333Z,21.15
2023-02-12T06:26:04.542Z,21.60
2023-02-12T06:28:31.456Z,21.17
2023-02-12T06:30:58.513Z,22.63
2023-02-12T06:33:25.481Z,20.98
2023-02-12T06:35:52.358Z,21.10
2023-02-12T06:38:19.285Z,22.52
2023-02-12T06:40:46.229Z,21.90
2023-02-12T06:43:13.132Z,20.00
2023-02-12T06:45:40.149Z,22.05
2023-02-12T06:48:07.181Z,22.30
2023-02-12T06:50:34.233Z,20.48
2023-02-12T06:53:01.155Z,21.92
2023-02-12T06:55:28.064Z,21.10
2023-02-12T06:57:54.981Z,22.35
2023-02-12T07:00:22.374Z,21.77
2023-02-12T07:02:54.526Z,20.10
2023-02-12T07:05:22.134Z,20.38
2023-02-12T07:07:49.036Z,22.42
2023-02-12T07:10:16.202Z,22.60
2023-02-12T07:12:43.117Z,21.95
2023-02-12T07:15:10.909Z,21.17
2023-02-12T07:17:38.039Z,21.42
2023-02-12T07:20:05.733Z,21.75
2023-02-12T07:22:36.193Z,21.17
2023-02-12T07:25:03.278Z,20.85
2023-02-12T07:27:30.200Z,21.02
2023-02-12T07:29:57.061Z,21.58
2023-02-12T07:32:23.922Z,21.20
2023-02-12T07:34:50.802Z,19.38
2023-02-12T07:37:22.717Z,20.90
2023-02-12T07:39:50.287Z,20.67
2023-02-12T07:42:17.941Z,21.63
2023-02-12T07:44:49.728Z,18.75
2023-02-12T07:47:17.187Z,20.83
2023-02-12T07:49:44.368Z,21.02
2023-02-12T07:52:13.371Z,20.73
2023-02-12T07:54:40.469Z,20.95
2023-02-12T07:57:07.334Z,21.90
2023-02-12T07:59:34.220Z,19.83
2023-02-12T08:02:01.387Z,18.80
2023-02-12T08:04:28.443Z,19.25
2023-02-12T08:06:56.591Z,21.27
2023-02-12T08:09:27.148Z,20.58
2023-02-12T08:11:54.444Z,21.15
2023-02-12T08:14:22.257Z,20.38
2023-02-12T08:16:50.696Z,19.13
2023-02-12T08:19:22.526Z,20.73
2023-02-12T08:21:53.228Z,19.27
2023-02-12T08:24:22.213Z,18.92
2023-02-12T08:26:49.850Z,20.05
2023-02-12T08:29:19.240Z,21.92
2023-02-12T08:31:48.798Z,21.42
2023-02-12T08:34:20.945Z,21.73
2023-02-12T08:36:49.710Z,19.83
2023-02-12T08:39:18.088Z,20.80
2023-02-12T08:41:45.627Z,19.15
2023-02-12T08:44:13.511Z,20.90
2023-02-12T08:46:44.537Z,21.80
2023-02-12T08:49:14.903Z,19.83
2023-02-12T08:51:44.349Z,20.50
2023-02-12T08:54:18.093Z,20.13
2023-02-12T08:56:45.631Z,20.88
2023-02-12T08:59:13.725Z,20.45
2023-02-12T09:01:44.374Z,18.88
2023-02-12T09:04:18.190Z,19.00
2023-02-12T09:06:46.749Z,20.20
2023-02-12T09:09:14.416Z,18.48
2023-02-12T09:11:41.608Z,19.10
2023-02-12T09:14:12.500Z,19.80
2023-02-12T09:16:40.642Z,19.67
2023-02-12T09:19:09.304Z,19.23
2023-02-12T09:21:36.243Z,19.85
2023-02-12T09:24:03.806Z,18.58
2023-02-12T09:26:31.090Z,18.25
2023-02-12T09:28:58.551Z,18.15
2023-02-12T09:31:29.173Z,16.70
2023-02-12T09:34:03.697Z,16.90
2023-02-12T09:36:31.711Z,17.08
2023-02-12T09:39:00.155Z,17.35
2023-02-12T09:41:45.024Z,16.10
2023-02-12T09:44:22.100Z,16.50
2023-02-12T09:46:54.204Z,16.15
2023-02-12T09:49:48.728Z,16.63
2023-02-12T09:52:22.528Z,16.02
2023-02-12T09:54:50.633Z,16.60
2023-02-12T09:57:23.986Z,17.15
2023-02-12T10:00:17.086Z,16.48
2023-02-12T10:02:44.148Z,15.40
2023-02-12T10:05:18.988Z,16.05
2023-02-12T10:08:16.133Z,18.45
2023-02-12T10:10:48.580Z,17.73
2023-02-12T10:13:27.754Z,17.13
2023-02-12T10:16:13.182Z,16.80
2023-02-12T10:18:56.025Z,18.38
2023-02-12T10:21:48.140Z,19.30
2023-02-12T10:24:37.450Z,18.50
2023-02-12T10:27:13.276Z,15.30
2023-02-12T10:29:44.697Z,18.38
2023-02-12T10:32:35.766Z,18.25
2023-02-12T10:35:14.060Z,17.80
2023-02-12T10:37:49.214Z,18.83
2023-02-12T10:40:27.751Z,19.55
2023-02-12T10:42:55.014Z,21.02
2023-02-12T10:45:26.610Z,17.90
2023-02-12T10:48:23.119Z,18.85
2023-02-12T10:51:10.285Z,17.95
2023-02-12T10:53:42.676Z,18.48
2023-02-12T10:56:15.418Z,20.02
2023-02-12T10:59:02.752Z,19.52
2023-02-12T11:01:34.189Z,18.95
2023-02-12T11:04:20.968Z,19.67
2023-02-12T11:07:04.280Z,18.92
2023-02-12T11:09:36.218Z,18.52
2023-02-12T11:12:04.114Z,20.67
2023-02-12T11:14:31.190Z,19.20
2023-02-12T11:17:00.348Z,17.27
2023-02-12T11:19:29.844Z,18.27
2023-02-12T11:22:19.015Z,18.85
2023-02-12T11:24:49.635Z,17.38
2023-02-12T11:27:16.430Z,16.00
2023-02-12T11:29:44.742Z,13.57
2023-02-12T11:32:17.702Z,12.93
2023-02-12T11:34:44.838Z,14.93
2023-02-12T11:37:18.306Z,13.98
2023-02-12T11:39:50.504Z,13.52
2023-02-12T11:42:24.497Z,10.43
2023-02-12T11:44:55.265Z,11.02
2023-02-12T11:47:25.921Z,13.85
2023-02-12T11:49:57.004Z,12.30
2023-02-12T11:52:31.497Z,13.88
2023-02-12T11:55:05.167Z,14.07
2023-02-12T11:57:39.907Z,12.45
2023-02-12T12:00:19.605Z,15.55
2023-02-12T12:03:21.594Z,14.35
2023-02-12T12:05:54.966Z,12.82
2023-02-12T12:08:29.367Z,13.55
2023-02-12T12:11:09.680Z,14.70
2023-02-12T12:13:53.985Z,13.18
2023-02-12T12:16:56.877Z,15.05
2023-02-12T12:19:52.903Z,15.25
2023-02-12T12:22:38.617Z,14.98
2023-02-12T12:25:27.375Z,11.30
2023-02-12T12:28:29.786Z,16.15
2023-02-12T12:31:12.585Z,14.85
2023-02-12T12:33:51.727Z,17.95
2023-02-12T12:36:42.658Z,15.23
2023-02-12T12:39:47.901Z,18.23
2023-02-12T12:42:56.137Z,16.35
2023-02-12T12:45:34.746Z,19.35
2023-02-12T12:48:13.312Z,14.75
2023-02-12T12:51:26.709Z,17.17
2023-02-12T12:53:56.741Z,16.27
2023-02-12T12:56:54.609Z,18.17
2023-02-12T12:59:30.451Z,18.10
2023-02-12T13:02:18.749Z,18.35
2023-02-12T13:05:11.714Z,17.42
2023-02-12T13:08:00.645Z,16.25
2023-02-12T13:10:45.978Z,14.38
2023-02-12T13:13:30.296Z,16.10
2023-02-12T13:15:57.438Z,17.63
2023-02-12T13:18:24.468Z,18.77
2023-02-12T13:21:04.343Z,16.88
2023-02-12T13:23:40.170Z,18.70
2023-02-12T13:26:31.227Z,20.20
2023-02-12T13:29:15.255Z,19.83
2023-02-12T13:31:49.955Z,18.85
2023-02-12T13:34:19.031Z,20.33
2023-02-12T13:36:47.060Z,17.98
2023-02-12T13:39:27.674Z,19.70
2023-02-12T13:42:19.623Z,18.27
2023-02-12T13:45:03.308Z,16.58
2023-02-12T13:47:35.790Z,20.02
2023-02-12T13:50:02.683Z,19.65
2023-02-12T13:52:41.706Z,20.85
2023-02-12T13:55:20.235Z,19.02
2023-02-12T13:57:47.212Z,19.42
2023-02-12T14:00:48.068Z,17.65
2023-02-12T14:03:15.194Z,20.55
2023-02-12T14:05:42.646Z,21.63
2023-02-12T14:08:34.943Z,22.10
2023-02-12T14:11:09.274Z,20.02
2023-02-12T14:13:52.114Z,20.10
2023-02-12T14:16:40.730Z,19.65
2023-02-12T14:19:38.476Z,20.38
2023-02-12T14:22:14.185Z,20.55
2023-02-12T14:24:49.355Z,20.58
2023-02-12T14:27:19.616Z,17.30
2023-02-12T14:30:25.844Z,18.92
2023-02-12T14:32:56.013Z,18.48
2023-02-12T14:35:40.693Z,17.67
2023-02-12T14:38:16.735Z,19.05
2023-02-12T14:40:50.649Z,16.25
2023-02-12T14:43:31.391Z,17.15
2023-02-12T14:46:24.268Z,18.30
2023-02-12T14:48:51.228Z,17.13
2023-02-12T14:51:31.742Z,18.65
2023-02-12T14:53:59.394Z,18.98
2023-02-12T14:56:27.271Z,18.45
2023-02-12T14:58:59.030Z,19.42
2023-02-12T15:01:34.235Z,17.98
2023-02-12T15:04:17.340Z,20.02
2023-02-12T15:06:53.947Z,17.27
2023-02-12T15:09:36.548Z,19.08
2023-02-12T15:12:11.132Z,18.17
2023-02-12T15:14:46.557Z,16.93
2023-02-12T15:17:35.350Z,17.00
2023-02-12T15:20:08.341Z,18.17
2023-02-12T15:22:38.274Z,17.48
2023-02-12T15:25:25.296Z,17.02
2023-02-12T15:27:56.394Z,16.75
2023-02-12T15:30:35.319Z,16.50
2023-02-12T15:33:05.894Z,17.13
2023-02-12T15:35:36.064Z,16.80
2023-02-12T15:38:04.361Z,18.00
2023-02-12T15:40:32.047Z,16.67
2023-02-12T15:43:03.042Z,18.38
2023-02-12T15:45:35.365Z,17.75
2023-02-12T15:48:10.509Z,17.38
2023-02-12T15:51:04.492Z,17.95
2023-02-12T15:53:31.500Z,16.38
2023-02-12T15:55:59.676Z,18.05
2023-02-12T15:58:49.962Z,17.80
2023-02-12T16:01:25.734Z,19.30
2023-02-12T16:03:55.857Z,19.85
2023-02-12T16:06:26.224Z,19.48
2023-02-12T16:09:02.434Z,21.88
2023-02-12T16:11:31.657Z,20.80
2023-02-12T16:14:01.478Z,20.45
2023-02-12T16:16:41.004Z,21.08
2023-02-12T16:19:08.003Z,21.38
2023-02-12T16:21:38.551Z,20.55
2023-02-12T16:24:06.250Z,20.05
2023-02-12T16:26:33.248Z,21.75
2023-02-12T16:29:00.157Z,20.25
2023-02-12T16:31:28.057Z,20.92
2023-02-12T16:33:58.646Z,19.45
2023-02-12T16:36:25.455Z,20.05
2023-02-12T16:39:04.079Z,20.75
2023-02-12T16:41:32.642Z,17.48
2023-02-12T16:44:02.351Z,17.42
2023-02-12T16:46:32.744Z,16.23
2023-02-12T16:49:02.384Z,15.35
2023-02-12T16:51:33.652Z,15.07
2023-02-12T16:54:02.952Z,14.38
2023-02-12T16:56:38.752Z,15.35
2023-02-12T16:59:06.803Z,15.27
2023-02-12T17:01:36.751Z,15.43
2023-02-12T17:04:09.022Z,13.88
2023-02-12T17:06:36.137Z,14.70
2023-02-12T17:09:03.172Z,14.13
2023-02-12T17:11:30.184Z,14.20
2023-02-12T17:13:57.322Z,14.43
2023-02-12T17:16:30.733Z,14.27
2023-02-12T17:18:59.510Z,15.02
2023-02-12T17:21:53.044Z,14.77
2023-02-12T17:24:22.838Z,14.18
2023-02-12T17:26:50.891Z,15.25
2023-02-12T17:29:18.839Z,15.38
2023-02-12T17:31:46.274Z,16.42
2023-02-12T17:34:13.811Z,16.20
2023-02-12T17:36:41.148Z,15.90
2023-02-12T17:39:09.538Z,15.45
2023-02-12T17:41:37.586Z,14.98
2023-02-12T17:44:04.745Z,15.05
2023-02-12T17:46:32.119Z,15.93
2023-02-12T17:48:59.146Z,14.55
2023-02-12T17:51:26.667Z,13.95
2023-02-12T17:53:53.778Z,14.48
2023-02-12T17:56:22.957Z,14.95
2023-02-12T17:58:50.141Z,14.52
2023-02-12T18:01:19.785Z,13.88
2023-02-12T18:03:47.111Z,15.52
2023-02-12T18:06:16.736Z,13.77
2023-02-12T18:08:43.981Z,14.52
2023-02-12T18:11:11.893Z,14.93
2023-02-12T18:13:39.625Z,14.57
2023-02-12T18:16:08.946Z,14.70
2023-02-12T18:18:36.751Z,13.30
2023-02-12T18:21:11.985Z,15.30
2023-02-12T18:23:39.593Z,15.45
2023-02-12T18:26:09.186Z,16.23
2023-02-12T18:28:36.694Z,17.25
2023-02-12T18:31:04.819Z,16.23
2023-02-12T18:33:32.245Z,16.02
2023-02-12T18:36:05.883Z,16.90
2023-02-12T18:38:35.384Z,15.63
2023-02-12T18:41:09.460Z,14.68
2023-02-12T18:43:37.230Z,13.98
2023-02-12T18:46:19.743Z,15.60
2023-02-12T18:48:47.543Z,14.73
2023-02-12T18:51:17.806Z,15.30
2023-02-12T18:53:45.172Z,15.77
2023-02-12T18:56:13.229Z,14.20
2023-02-12T18:58:40.954Z,13.13
2023-02-12T19:01:16.175Z,11.07
2023-02-12T19:03:44.417Z,12.35
2023-02-12T19:06:11.909Z,12.57
2023-02-12T19:08:39.445Z,13.75
2023-02-12T19:11:08.110Z,13.73
2023-02-12T19:13:35.107Z,12.02
2023-02-12T19:16:16.220Z,10.90
2023-02-12T19:18:43.228Z,12.25
2023-02-12T19:21:13.384Z,11.40
2023-02-12T19:23:40.577Z,10.68
2023-02-12T19:26:13.886Z,8.85
2023-02-12T19:28:42.265Z,9.15
2023-02-12T19:31:14.184Z,9.70
2023-02-12T19:33:42.773Z,10.15
2023-02-12T19:36:12.387Z,11.43
2023-02-12T19:38:40.508Z,10.98
2023-02-12T19:41:20.063Z,10.30
2023-02-12T19:43:47.445Z,10.63
2023-02-12T19:46:17.741Z,11.02
2023-02-12T19:48:46.348Z,10.35
2023-02-12T19:51:18.494Z,9.60
2023-02-12T19:53:47.207Z,10.90
2023-02-12T19:56:15.647Z,9.25
2023-02-12T19:58:43.104Z,9.57
2023-02-12T20:01:16.709Z,8.05
2023-02-12T20:03:45.245Z,9.40
2023-02-12T20:06:16.109Z,9.02
2023-02-12T20:08:44.391Z,9.98
2023-02-12T20:11:15.468Z,8.82
2023-02-12T20:13:42.988Z,9.05
2023-02-12T20:16:15.947Z,8.10
2023-02-12T20:18:44.861Z,8.75
2023-02-12T20:21:34.440Z,8.20
2023-02-12T20:24:02.396Z,7.90
2023-02-12T20:26:31.494Z,7.80
2023-02-12T20:29:00.132Z,7.80
2023-02-12T20:31:32.548Z,7.95
2023-02-12T20:34:07.542Z,8.20
2023-02-12T20:36:38.788Z,8.55
2023-02-12T20:39:08.312Z,8.25
2023-02-12T20:41:37.254Z,9.05
2023-02-12T20:44:06.885Z,8.02
2023-02-12T20:46:36.284Z,7.95
2023-02-12T20:49:03.867Z,8.90
2023-02-12T20:51:31.324Z,7.75
2023-02-12T20:54:01.324Z,7.93
2023-02-12T20:56:31.406Z,8.10
2023-02-12T20:58:59.717Z,6.90
2023-02-12T21:01:33.010Z,7.00
2023-02-12T21:04:06.909Z,8.00
2023-02-12T21:06:34.616Z,7.45
2023-02-12T21:09:01.857Z,7.97
2023-02-12T21:11:29.945Z,7.30
2023-02-12T21:14:07.803Z,6.43
2023-02-12T21:16:45.552Z,6.82
2023-02-12T21:19:14.265Z,5.88
2023-02-12T21:21:42.329Z,4.80
2023-02-12T21:24:12.893Z,5.60
2023-02-12T21:26:40.354Z,5.40
2023-02-12T21:29:07.601Z,5.28
2023-02-12T21:31:46.263Z,4.95
2023-02-12T21:34:16.122Z,4.70
2023-02-12T21:36:47.620Z,5.22
2023-02-12T21:39:24.512Z,4.28
2023-02-12T21:41:54.175Z,4.80
2023-02-12T21:44:22.458Z,5.03
2023-02-12T21:46:49.793Z,4.13
2023-02-12T21:49:24.828Z,4.50
2023-02-12T21:51:54.500Z,4.57
2023-02-12T21:54:22.713Z,4.43
2023-02-12T21:56:50.770Z,4.45
2023-02-12T21:59:18.594Z,3.95
2023-02-12T22:01:51.563Z,3.75
2023-02-12T22:04:19.751Z,3.95
2023-02-12T22:06:49.105Z,4.10
2023-02-12T22:09:21.194Z,4.28
2023-02-12T22:11:48.394Z,4.10
2023-02-12T22:14:17.410Z,4.00
2023-02-12T22:16:45.522Z,3.97
2023-02-12T22:19:12.677Z,4.05
2023-02-12T22:21:41.995Z,4.38
2023-02-12T22:24:11.718Z,3.90
2023-02-12T22:26:38.791Z,3.58
2023-02-12T22:29:09.187Z,3.80
2023-02-12T22:31:38.191Z,3.85
2023-02-12T22:34:08.417Z,3.53
2023-02-12T22:36:37.181Z,3.90
2023-02-12T22:39:05.004Z,3.97
2023-02-12T22:41:32.373Z,3.85
2023-02-12T22:44:00.773Z,3.92
2023-02-12T22:46:28.172Z,4.00
2023-02-12T22:48:55.459Z,3.95
2023-02-12T22:51:24.306Z,3.95
2023-02-12T22:53:51.613Z,4.22
2023-02-12T22:56:19.208Z,4.30
2023-02-12T22:58:46.520Z,3.72
2023-02-12T23:01:15.956Z,4.45
2023-02-12T23:03:43.354Z,4.13
2023-02-12T23:06:22.003Z,4.55
2023-02-12T23:08:54.800Z,4.60
2023-02-12T23:11:24.649Z,5.05
2023-02-12T23:13:52.521Z,4.40
2023-02-12T23:16:19.560Z,3.90
2023-02-12T23:18:46.588Z,3.55
2023-02-12T23:21:13.935Z,3.03
2023-02-12T23:23:41.185Z,3.08
2023-02-12T23:26:08.110Z,3.60
2023-02-12T23:28:35.135Z,3.25
2023-02-12T23:31:02.737Z,3.45
2023-02-12T23:33:29.964Z,3.22
2023-02-12T23:35:56.893Z,3.13
2023-02-12T23:38:23.764Z,3.08
2023-02-12T23:40:50.679Z,3.47
2023-02-12T23:43:17.626Z,3.63
2023-02-12T23:45:45.564Z,3.13
2023-02-12T23:48:13.111Z,3.58
2023-02-12T23:50:40.619Z,3.25
2023-02-12T23:53:07.729Z,3.35
2023-02-12T23:55:37.246Z,2.90
2023-02-12T23:58:05.306Z,3.03
